フォルタレザ の空港の天気 - METARとTAF

フォルタレザ/ピント・マーティンズ国際空港 ( SBFZ / FOR ) - ブラジル セアラー州フォルタレザ
飛行場実況気象(Metar)
観測時間07/22 15:00 BRT (07/22 18:00 UTC)
風向・風速東 7m/s
視程10km以上
天気現象
全天の4割程度の雲 雲底高度 910m
全天の4割程度の雲 雲底高度 2440m
気温29℃
湿度58%
気圧1011hPa
METARSBFZ 221800Z 08013KT 9999 SCT030 SCT080 29/20 Q1011
過去の天気等 Google飛行場航空写真 Wunderground天気予報

過去48時間のMETAR

飛行場予報(TAF)
発表時間: 7/22 12:00 BRT (7/22 15:00 UTC)
予報対象時間: 22日15時 BRT ~ 23日15時 BRT
風向・風速東 6m/s
視程8000m
全天の4割程度の雲 雲底高度 610m
全天の4割程度の雲 雲底高度 1220m
23日1時 BRT ~ 23日2時 BRT に徐々に
風向・風速南東 5m/s
23日8時 BRT ~ 23日10時 BRT に徐々に
風向・風速東南東 7m/s
TAF SBFZ 221500Z 2218/2318 10012KT 8000 SCT020 SCT040 TN25/2308Z TX30/2315Z
BECMG 2304/2305 13009KT
BECMG 2311/2313 12014KT RMK PEU